This is the latest recevied weather packets stored in our database for station/object K7EK. If no packets are shown the sender has not sent any weather packets the latest 10 day(s).
| Time | Temp. | Humidity | Pressure | Rain* | Wind** | Luminosity | Snow |
|---|---|---|---|---|---|---|---|
| 1778217359 | 5° C | 88% | 1015.6 hPa | 0 mm | - | - | - |
| 1778208357 | 7.78° C | 76% | 1015.8 hPa | 0 mm | - | - | - |
| 1778201148 | 13.33° C | 52% | 1014.3 hPa | 0 mm | - | - | - |
| 1778170550 | 15° C | 44% | 1015.9 hPa | 0 mm | - | - | - |
| 1778164250 | 13.89° C | 49% | 1015.8 hPa | 0 mm | - | - | - |
| 1778150756 | 4.44° C | 93% | 1015.3 hPa | 0 mm | - | - | - |
| 1778146255 | 5° C | 91% | 1014.6 hPa | 0 mm | - | - | - |
| 1778142649 | 6.67° C | 88% | 1014.2 hPa | 0 mm | - | - | - |
| 1778140853 | 7.22° C | 86% | 1014.4 hPa | 0 mm | - | - | - |
| 1778138153 | 8.89° C | 81% | 1014.1 hPa | 0 mm | - | - | - |
| 1778130950 | 10.56° C | 79% | 1014.5 hPa | 0 mm | - | - | - |
| 1778129159 | 10.56° C | 80% | 1014.5 hPa | 0 mm | - | - | - |
| 1778128244 | 10.56° C | 83% | 1014.3 hPa | 0 mm | - | - | - |
| 1778126451 | 10° C | 85% | 1014.7 hPa | 0 mm | - | - | - |
| 1778122856 | 10.56° C | 79% | 1015 hPa | 0 mm | - | - | - |
| 1778121047 | 11.11° C | 77% | 1014.8 hPa | 0 mm | - | - | - |
| 1778120147 | 11.67° C | 76% | 1014.4 hPa | 0 mm | - | - | - |
| 1778119251 | 11.67° C | 75% | 1014.2 hPa | 0 mm | - | - | - |
| 1778117460 | 12.78° C | 73% | 1013.5 hPa | 0 mm | - | - | - |
| 1778115655 | 13.33° C | 69% | 1013.4 hPa | 0 mm | - | - | - |
| 1778113853 | 13.89° C | 67% | 1013.3 hPa | 0 mm | - | - | - |
| 1778110248 | 14.44° C | 62% | 1013.1 hPa | 0 mm | - | - | - |
| 1778107560 | 15° C | 59% | 1013.3 hPa | 0 mm | - | - | - |
| 1778097650 | 16.67° C | 58% | 1012.5 hPa | 0 mm | - | - | - |
| 1778085952 | 15° C | 63% | 1013.1 hPa | 0 mm | - | - | - |
* Rain latest hour (hover to see other rain measurements)
** Current wind speed in m/s (hover to see current wind gust speed)